Time,TemperatureF,DewpointF,PressureIn,WindDirection,WindDirectionDegrees,WindSpeedMPH,WindSpeedGustMPH,Humidity,HourlyPrecipIn,Conditions,Clouds,dailyrainin,SoftwareType,DateUTC
2013-01-15 00:29:00,36.1,35.4,29.93,NE,45,0.0,2.0,97,0.00,,FEW,0.00,WeatherDisplay:10.37,2013-01-15 00:29:00,
2013-01-15 00:59:00,36.3,35.6,29.94,NE,45,0.0,8.0,97,0.00,,FEW,0.00,WeatherDisplay:10.37,2013-01-15 00:59:00,
2013-01-15 01:29:00,36.0,35.2,29.94,NE,45,0.0,1.0,97,0.00,,FEW,0.00,WeatherDisplay:10.37,2013-01-15 01:29:00,
2013-01-15 01:59:00,35.6,35.1,29.94,NE,45,0.0,2.0,98,0.00,,FEW,0.00,WeatherDisplay:10.37,2013-01-15 01:59:00,
2013-01-15 02:29:00,35.2,34.7,29.94,NE,45,0.0,0.0,98,0.00,,FEW,0.00,WeatherDisplay:10.37,2013-01-15 02:29:00,
2013-01-15 02:59:00,34.7,34.2,29.94,NE,45,0.0,0.0,98,0.00,,FEW,0.00,WeatherDisplay:10.37,2013-01-15 02:59:00,
2013-01-15 03:29:00,34.3,33.8,29.95,NE,45,0.0,0.0,98,0.00,,FEW,0.00,WeatherDisplay:10.37,2013-01-15 03:29:00,
2013-01-15 03:59:00,34.0,33.4,29.94,NE,45,0.0,0.0,98,0.00,,FEW,0.00,WeatherDisplay:10.37,2013-01-15 03:59:00,
2013-01-15 04:29:00,33.8,33.5,29.94,NE,45,0.0,2.0,99,0.00,,FEW,0.00,WeatherDisplay:10.37,2013-01-15 04:29:00,
2013-01-15 04:59:00,33.6,33.4,29.95,NE,45,0.0,1.0,99,0.00,,FEW,0.00,WeatherDisplay:10.37,2013-01-15 04:59:00,
2013-01-15 05:29:00,34.0,33.8,29.94,NE,45,0.0,2.0,99,0.00,,FEW,0.00,WeatherDisplay:10.37,2013-01-15 05:29:00,
2013-01-15 05:59:00,34.0,33.7,29.95,NE,45,0.0,2.0,99,0.00,,FEW,0.00,WeatherDisplay:10.37,2013-01-15 05:59:00,
2013-01-15 06:29:00,33.8,33.5,29.94,NE,45,0.0,0.0,99,0.00,,FEW,0.00,WeatherDisplay:10.37,2013-01-15 06:29:00,
2013-01-15 06:59:00,34.0,33.7,29.95,NE,45,0.0,2.0,99,0.00,,FEW,0.00,WeatherDisplay:10.37,2013-01-15 06:59:00,
2013-01-15 07:29:00,34.2,33.9,29.95,NE,45,0.0,2.0,99,0.00,,FEW,0.00,WeatherDisplay:10.37,2013-01-15 07:29:00,
2013-01-15 07:59:00,34.9,34.6,29.95,NE,45,0.0,2.0,99,0.00,,FEW,0.00,WeatherDisplay:10.37,2013-01-15 07:59:00,
2013-01-15 08:29:00,34.2,33.9,29.96,NE,45,0.0,2.0,99,0.00,,FEW,0.00,WeatherDisplay:10.37,2013-01-15 08:29:00,
2013-01-15 08:59:00,33.8,33.5,29.96,NE,45,0.0,6.0,99,0.00,,FEW,0.00,WeatherDisplay:10.37,2013-01-15 08:59:00,
2013-01-15 09:29:00,34.2,33.9,29.95,NE,45,0.0,0.0,99,0.00,,FEW,0.00,WeatherDisplay:10.37,2013-01-15 09:29:00,
2013-01-15 09:59:00,35.6,35.3,29.94,NE,45,0.0,2.0,99,0.00,,FEW,0.00,WeatherDisplay:10.37,2013-01-15 09:59:00,
2013-01-15 10:29:00,36.1,35.9,29.95,NE,45,0.0,2.0,99,0.00,,FEW,0.00,WeatherDisplay:10.37,2013-01-15 10:29:00,
2013-01-15 10:59:00,36.8,36.5,29.95,NE,45,0.0,1.0,99,0.00,,FEW,0.00,WeatherDisplay:10.37,2013-01-15 10:59:00,
2013-01-15 11:29:00,37.9,37.7,29.94,NE,45,0.0,0.0,99,0.00,,FEW,0.00,WeatherDisplay:10.37,2013-01-15 11:29:00,
2013-01-15 11:59:00,39.0,38.5,29.95,NE,45,0.0,0.0,98,0.00,,FEW,0.00,WeatherDisplay:10.37,2013-01-15 11:59:00,
2013-01-15 12:29:00,39.1,38.3,29.94,NE,45,0.0,0.0,97,0.00,,FEW,0.00,WeatherDisplay:10.37,2013-01-15 12:29:00,
2013-01-15 12:59:00,39.4,38.3,29.93,NE,45,0.0,0.0,96,0.00,,FEW,0.00,WeatherDisplay:10.37,2013-01-15 12:59:00,
2013-01-15 13:29:00,39.6,38.0,29.92,NE,45,0.0,0.0,94,0.00,,FEW,0.00,WeatherDisplay:10.37,2013-01-15 13:29:00,
2013-01-15 13:59:00,39.9,38.1,29.91,NE,45,0.0,2.0,93,0.00,,FEW,0.00,WeatherDisplay:10.37,2013-01-15 13:59:00,
2013-01-15 14:29:00,39.9,37.5,29.90,NE,45,0.0,0.0,91,0.00,,FEW,0.00,WeatherDisplay:10.37,2013-01-15 14:29:00,
2013-01-15 14:59:00,40.1,37.4,29.89,NE,45,0.0,0.0,90,0.00,,FEW,0.00,WeatherDisplay:10.37,2013-01-15 14:59:00,
2013-01-15 15:29:00,39.6,37.2,29.89,NE,45,0.0,0.0,91,0.00,,FEW,0.00,WeatherDisplay:10.37,2013-01-15 15:29:00,
2013-01-15 15:59:00,39.0,36.9,29.88,NE,45,0.0,0.0,92,0.00,,FEW,0.00,WeatherDisplay:10.37,2013-01-15 15:59:00,
2013-01-15 16:29:00,38.7,36.5,29.88,NE,45,0.0,0.0,92,0.00,,FEW,0.00,WeatherDisplay:10.37,2013-01-15 16:29:00,
2013-01-15 17:00:00,37.9,35.8,29.87,NE,45,0.0,0.0,92,0.00,,FEW,0.00,WeatherDisplay:10.37,2013-01-15 17:00:00,
2013-01-15 17:30:00,38.1,36.3,29.86,NE,45,0.0,0.0,93,0.00,,FEW,0.00,WeatherDisplay:10.37,2013-01-15 17:30:00,
2013-01-15 18:00:00,37.6,35.7,29.86,NE,45,0.0,0.0,93,0.00,,FEW,0.00,WeatherDisplay:10.37,2013-01-15 18:00:00,
2013-01-15 18:30:00,37.0,35.5,29.85,NE,45,0.0,0.0,94,0.00,,FEW,0.00,WeatherDisplay:10.37,2013-01-15 18:30:00,
2013-01-15 19:00:00,37.4,36.1,29.84,NE,45,0.0,0.0,95,0.00,,FEW,0.00,WeatherDisplay:10.37,2013-01-15 19:00:00,
2013-01-15 19:30:00,38.5,37.4,29.83,NE,45,0.0,0.0,96,0.00,,FEW,0.00,WeatherDisplay:10.37,2013-01-15 19:30:00,
2013-01-15 20:00:00,39.4,38.9,29.83,NE,45,2.0,6.0,98,0.00,,FEW,0.00,WeatherDisplay:10.37,2013-01-15 20:00:00,
2013-01-15 20:30:00,41.2,40.7,29.81,NE,45,0.0,9.0,98,0.00,,FEW,0.00,WeatherDisplay:10.37,2013-01-15 20:30:00,
2013-01-15 21:00:00,41.9,40.8,29.81,NE,45,6.0,12.0,96,0.00,,FEW,0.00,WeatherDisplay:10.37,2013-01-15 21:00:00,
2013-01-15 21:30:00,42.3,40.4,29.80,NE,45,7.0,13.0,93,0.00,,FEW,0.00,WeatherDisplay:10.37,2013-01-15 21:30:00,
2013-01-15 22:00:00,42.6,40.7,29.80,NE,45,5.0,14.0,93,0.00,,FEW,0.00,WeatherDisplay:10.37,2013-01-15 22:00:00,
2013-01-15 22:30:00,42.8,40.4,29.79,NE,45,6.0,14.0,91,0.00,,FEW,0.00,WeatherDisplay:10.37,2013-01-15 22:30:00,
2013-01-15 23:00:00,43.0,40.0,29.79,NE,45,7.0,15.0,89,0.00,,FEW,0.00,WeatherDisplay:10.37,2013-01-15 23:00:00,
2013-01-15 23:30:00,43.2,39.6,29.78,NE,45,9.0,15.0,87,0.00,,FEW,0.00,WeatherDisplay:10.37,2013-01-15 23:30:00,